sensor_id;sensor_type;location;lat;lon;timestamp;temperature;humidity
78904;DHT22;68291;49.602;8.722;2023-03-01T09:01:21;9.00;86.30
78904;DHT22;68291;49.602;8.722;2023-03-01T09:04:50;9.10;86.20
78904;DHT22;68291;49.602;8.722;2023-03-01T09:07:23;9.40;85.90
78904;DHT22;68291;49.602;8.722;2023-03-01T09:10:03;9.50;84.40
78904;DHT22;68291;49.602;8.722;2023-03-01T09:12:36;9.60;83.40
78904;DHT22;68291;49.602;8.722;2023-03-01T09:15:07;9.50;83.30
78904;DHT22;68291;49.602;8.722;2023-03-01T09:17:37;9.50;82.60
78904;DHT22;68291;49.602;8.722;2023-03-01T09:20:10;9.40;82.10
78904;DHT22;68291;49.602;8.722;2023-03-01T09:22:40;9.30;82.10
78904;DHT22;68291;49.602;8.722;2023-03-01T09:25:11;9.20;82.00
78904;DHT22;68291;49.602;8.722;2023-03-01T09:27:44;9.00;81.50
78904;DHT22;68291;49.602;8.722;2023-03-01T09:30:16;8.90;81.70
78904;DHT22;68291;49.602;8.722;2023-03-01T09:32:53;8.70;81.70
78904;DHT22;68291;49.602;8.722;2023-03-01T09:35:24;8.60;82.30
78904;DHT22;68291;49.602;8.722;2023-03-01T09:37:54;8.50;82.60
78904;DHT22;68291;49.602;8.722;2023-03-01T09:40:30;8.40;82.90
78904;DHT22;68291;49.602;8.722;2023-03-01T09:43:21;8.40;83.20
78904;DHT22;68291;49.602;8.722;2023-03-01T09:46:00;8.30;82.90
78904;DHT22;68291;49.602;8.722;2023-03-01T09:48:41;8.30;83.10
78904;DHT22;68291;49.602;8.722;2023-03-01T09:51:29;8.30;83.20
78904;DHT22;68291;49.602;8.722;2023-03-01T09:54:08;8.20;83.30
78904;DHT22;68291;49.602;8.722;2023-03-01T09:56:59;8.20;83.70
78904;DHT22;68291;49.602;8.722;2023-03-01T10:00:13;8.30;83.70
78904;DHT22;68291;49.602;8.722;2023-03-01T10:02:58;8.30;83.70
78904;DHT22;68291;49.602;8.722;2023-03-01T10:05:59;8.30;83.90
78904;DHT22;68291;49.602;8.722;2023-03-01T10:08:52;8.30;83.60
78904;DHT22;68291;49.602;8.722;2023-03-01T10:11:31;8.40;83.30
78904;DHT22;68291;49.602;8.722;2023-03-01T10:14:18;8.40;83.40
78904;DHT22;68291;49.602;8.722;2023-03-01T10:17:12;8.40;83.90
78904;DHT22;68291;49.602;8.722;2023-03-01T10:19:55;8.40;83.70
78904;DHT22;68291;49.602;8.722;2023-03-01T10:22:48;8.50;84.20
78904;DHT22;68291;49.602;8.722;2023-03-01T10:25:56;8.50;84.50
78904;DHT22;68291;49.602;8.722;2023-03-01T10:28:57;8.60;84.00
78904;DHT22;68291;49.602;8.722;2023-03-01T10:31:43;8.70;84.00
78904;DHT22;68291;49.602;8.722;2023-03-01T10:34:28;8.70;84.00
78904;DHT22;68291;49.602;8.722;2023-03-01T10:37:10;8.80;84.40
78904;DHT22;68291;49.602;8.722;2023-03-01T10:40:00;8.90;84.70
78904;DHT22;68291;49.602;8.722;2023-03-01T10:42:49;9.00;84.00
78904;DHT22;68291;49.602;8.722;2023-03-01T10:45:33;9.00;84.50
78904;DHT22;68291;49.602;8.722;2023-03-01T10:48:13;9.10;84.60
78904;DHT22;68291;49.602;8.722;2023-03-01T10:51:04;9.20;84.40
78904;DHT22;68291;49.602;8.722;2023-03-01T10:53:50;9.30;84.00
78904;DHT22;68291;49.602;8.722;2023-03-01T10:56:21;9.30;84.10
78904;DHT22;68291;49.602;8.722;2023-03-01T10:59:32;9.40;84.00
78904;DHT22;68291;49.602;8.722;2023-03-01T11:02:17;9.40;84.10
78904;DHT22;68291;49.602;8.722;2023-03-01T11:05:00;9.50;83.70
78904;DHT22;68291;49.602;8.722;2023-03-01T11:07:56;9.50;83.80
78904;DHT22;68291;49.602;8.722;2023-03-01T11:10:40;9.60;83.80
78904;DHT22;68291;49.602;8.722;2023-03-01T11:13:15;9.60;84.00
78904;DHT22;68291;49.602;8.722;2023-03-01T11:16:01;9.70;83.90
78904;DHT22;68291;49.602;8.722;2023-03-01T11:18:57;9.70;83.40
78904;DHT22;68291;49.602;8.722;2023-03-01T11:21:34;9.80;82.40
78904;DHT22;68291;49.602;8.722;2023-03-01T11:24:12;9.90;83.30
78904;DHT22;68291;49.602;8.722;2023-03-01T11:26:50;9.90;83.80
78904;DHT22;68291;49.602;8.722;2023-03-01T11:29:30;10.00;84.20
78904;DHT22;68291;49.602;8.722;2023-03-01T11:32:26;10.10;84.20
78904;DHT22;68291;49.602;8.722;2023-03-01T11:35:18;10.20;83.40
78904;DHT22;68291;49.602;8.722;2023-03-01T11:38:16;10.20;83.60
78904;DHT22;68291;49.602;8.722;2023-03-01T11:41:02;10.30;83.20
78904;DHT22;68291;49.602;8.722;2023-03-01T11:43:49;10.40;82.20
78904;DHT22;68291;49.602;8.722;2023-03-01T11:46:43;10.40;82.20
78904;DHT22;68291;49.602;8.722;2023-03-01T11:49:45;10.40;81.80
78904;DHT22;68291;49.602;8.722;2023-03-01T11:52:43;10.40;79.40
78904;DHT22;68291;49.602;8.722;2023-03-01T11:55:43;10.40;80.20
78904;DHT22;68291;49.602;8.722;2023-03-01T12:01:51;10.40;81.30
78904;DHT22;68291;49.602;8.722;2023-03-01T12:04:58;10.50;81.00
78904;DHT22;68291;49.602;8.722;2023-03-01T12:07:59;10.50;80.00
78904;DHT22;68291;49.602;8.722;2023-03-01T12:10:43;10.50;80.30
78904;DHT22;68291;49.602;8.722;2023-03-01T12:17:09;10.60;81.10
78904;DHT22;68291;49.602;8.722;2023-03-01T12:20:29;10.60;81.10
78904;DHT22;68291;49.602;8.722;2023-03-01T12:26:44;10.70;81.40
78904;DHT22;68291;49.602;8.722;2023-03-01T12:29:36;10.80;81.00
78904;DHT22;68291;49.602;8.722;2023-03-01T12:32:41;10.80;80.60
78904;DHT22;68291;49.602;8.722;2023-03-01T12:35:39;10.90;80.90
78904;DHT22;68291;49.602;8.722;2023-03-01T12:38:41;10.90;79.10
78904;DHT22;68291;49.602;8.722;2023-03-01T12:41:41;11.00;76.60
78904;DHT22;68291;49.602;8.722;2023-03-01T12:44:35;10.90;77.70
78904;DHT22;68291;49.602;8.722;2023-03-01T12:47:39;11.00;79.90
78904;DHT22;68291;49.602;8.722;2023-03-01T12:50:24;11.00;78.90
78904;DHT22;68291;49.602;8.722;2023-03-01T12:53:07;11.00;79.70
78904;DHT22;68291;49.602;8.722;2023-03-01T12:56:02;11.10;79.30
78904;DHT22;68291;49.602;8.722;2023-03-01T12:58:55;11.20;79.20
78904;DHT22;68291;49.602;8.722;2023-03-01T13:01:56;11.30;79.10
78904;DHT22;68291;49.602;8.722;2023-03-01T13:04:45;11.40;79.70
78904;DHT22;68291;49.602;8.722;2023-03-01T13:07:38;11.50;79.80
78904;DHT22;68291;49.602;8.722;2023-03-01T13:10:48;11.60;80.00
78904;DHT22;68291;49.602;8.722;2023-03-01T13:13:36;11.70;79.80
78904;DHT22;68291;49.602;8.722;2023-03-01T13:16:41;11.80;80.30
78904;DHT22;68291;49.602;8.722;2023-03-01T13:19:22;11.90;78.20
78904;DHT22;68291;49.602;8.722;2023-03-01T13:22:29;12.00;79.20
78904;DHT22;68291;49.602;8.722;2023-03-01T13:25:15;12.10;78.30
78904;DHT22;68291;49.602;8.722;2023-03-01T13:32:19;12.20;77.00
78904;DHT22;68291;49.602;8.722;2023-03-01T13:35:41;12.30;77.80
78904;DHT22;68291;49.602;8.722;2023-03-01T13:38:44;12.40;77.70
78904;DHT22;68291;49.602;8.722;2023-03-01T13:41:50;12.50;76.40
78904;DHT22;68291;49.602;8.722;2023-03-01T13:44:33;12.60;77.60
78904;DHT22;68291;49.602;8.722;2023-03-01T13:47:39;12.80;77.10
78904;DHT22;68291;49.602;8.722;2023-03-01T13:50:28;13.10;77.10
78904;DHT22;68291;49.602;8.722;2023-03-01T13:53:17;13.40;79.60
78904;DHT22;68291;49.602;8.722;2023-03-01T13:56:12;13.90;78.50
78904;DHT22;68291;49.602;8.722;2023-03-01T13:58:53;14.30;78.70
78904;DHT22;68291;49.602;8.722;2023-03-01T14:01:29;14.80;78.40
78904;DHT22;68291;49.602;8.722;2023-03-01T14:04:24;15.20;78.60
78904;DHT22;68291;49.602;8.722;2023-03-01T14:07:12;15.80;75.00
78904;DHT22;68291;49.602;8.722;2023-03-01T14:10:13;16.20;76.50
78904;DHT22;68291;49.602;8.722;2023-03-01T14:12:57;16.70;76.30
78904;DHT22;68291;49.602;8.722;2023-03-01T14:15:55;17.00;74.30
78904;DHT22;68291;49.602;8.722;2023-03-01T14:18:57;17.50;73.50
78904;DHT22;68291;49.602;8.722;2023-03-01T14:22:18;17.90;73.60
78904;DHT22;68291;49.602;8.722;2023-03-01T14:25:06;18.30;71.00
78904;DHT22;68291;49.602;8.722;2023-03-01T14:27:55;18.60;71.70
78904;DHT22;68291;49.602;8.722;2023-03-01T14:30:41;18.90;71.40
78904;DHT22;68291;49.602;8.722;2023-03-01T14:33:21;19.10;68.30
78904;DHT22;68291;49.602;8.722;2023-03-01T14:36:04;19.30;66.40
78904;DHT22;68291;49.602;8.722;2023-03-01T14:39:16;19.40;66.00
78904;DHT22;68291;49.602;8.722;2023-03-01T14:42:01;19.60;65.10
78904;DHT22;68291;49.602;8.722;2023-03-01T14:44:53;19.70;66.70
78904;DHT22;68291;49.602;8.722;2023-03-01T14:47:44;19.90;64.80
78904;DHT22;68291;49.602;8.722;2023-03-01T14:50:24;20.10;63.80
78904;DHT22;68291;49.602;8.722;2023-03-01T14:53:01;20.20;63.30
78904;DHT22;68291;49.602;8.722;2023-03-01T14:55:59;20.20;63.80
78904;DHT22;68291;49.602;8.722;2023-03-01T14:59:02;20.40;62.30
78904;DHT22;68291;49.602;8.722;2023-03-01T15:01:49;20.60;63.40
78904;DHT22;68291;49.602;8.722;2023-03-01T15:04:27;20.70;60.50
78904;DHT22;68291;49.602;8.722;2023-03-01T15:07:13;20.80;59.60
78904;DHT22;68291;49.602;8.722;2023-03-01T15:09:54;20.80;59.20
78904;DHT22;68291;49.602;8.722;2023-03-01T15:12:42;21.00;59.40
78904;DHT22;68291;49.602;8.722;2023-03-01T15:15:36;21.00;58.60
78904;DHT22;68291;49.602;8.722;2023-03-01T15:18:28;21.20;59.10
78904;DHT22;68291;49.602;8.722;2023-03-01T15:21:19;21.30;58.70
78904;DHT22;68291;49.602;8.722;2023-03-01T15:23:55;21.40;58.70
78904;DHT22;68291;49.602;8.722;2023-03-01T15:26:43;21.60;57.70
78904;DHT22;68291;49.602;8.722;2023-03-01T15:29:32;21.60;57.30
78904;DHT22;68291;49.602;8.722;2023-03-01T15:32:29;21.70;54.80
78904;DHT22;68291;49.602;8.722;2023-03-01T15:35:40;21.70;56.50
78904;DHT22;68291;49.602;8.722;2023-03-01T15:38:27;21.70;54.50
78904;DHT22;68291;49.602;8.722;2023-03-01T15:41:24;21.70;55.30
78904;DHT22;68291;49.602;8.722;2023-03-01T15:44:00;21.80;53.70
78904;DHT22;68291;49.602;8.722;2023-03-01T15:46:57;21.80;54.90
78904;DHT22;68291;49.602;8.722;2023-03-01T15:49:47;21.80;54.70
78904;DHT22;68291;49.602;8.722;2023-03-01T15:52:29;21.80;55.30
78904;DHT22;68291;49.602;8.722;2023-03-01T15:55:21;21.80;55.00
78904;DHT22;68291;49.602;8.722;2023-03-01T15:58:13;21.80;53.70
78904;DHT22;68291;49.602;8.722;2023-03-01T16:00:54;21.80;53.40
78904;DHT22;68291;49.602;8.722;2023-03-01T16:03:39;21.60;53.60
78904;DHT22;68291;49.602;8.722;2023-03-01T16:06:17;21.60;53.50
78904;DHT22;68291;49.602;8.722;2023-03-01T16:08:56;21.50;53.80
78904;DHT22;68291;49.602;8.722;2023-03-01T16:11:39;21.30;53.50
78904;DHT22;68291;49.602;8.722;2023-03-01T16:14:25;21.00;53.10
78904;DHT22;68291;49.602;8.722;2023-03-01T16:17:23;20.60;52.80
78904;DHT22;68291;49.602;8.722;2023-03-01T16:20:21;20.10;52.70
78904;DHT22;68291;49.602;8.722;2023-03-01T16:23:00;19.40;51.90
78904;DHT22;68291;49.602;8.722;2023-03-01T16:25:33;18.80;52.50
78904;DHT22;68291;49.602;8.722;2023-03-01T16:28:07;18.10;52.80
78904;DHT22;68291;49.602;8.722;2023-03-01T16:30:53;17.50;53.20
78904;DHT22;68291;49.602;8.722;2023-03-01T16:33:37;16.90;53.90
78904;DHT22;68291;49.602;8.722;2023-03-01T16:36:35;16.40;54.40
78904;DHT22;68291;49.602;8.722;2023-03-01T16:39:16;15.80;54.30
78904;DHT22;68291;49.602;8.722;2023-03-01T16:41:56;15.40;54.80
78904;DHT22;68291;49.602;8.722;2023-03-01T16:44:32;14.90;55.00
78904;DHT22;68291;49.602;8.722;2023-03-01T16:47:31;14.50;55.40
78904;DHT22;68291;49.602;8.722;2023-03-01T16:50:25;14.10;55.80
78904;DHT22;68291;49.602;8.722;2023-03-01T16:53:30;13.70;56.30
78904;DHT22;68291;49.602;8.722;2023-03-01T16:56:19;13.40;57.20
78904;DHT22;68291;49.602;8.722;2023-03-01T16:58:51;13.00;57.00
78904;DHT22;68291;49.602;8.722;2023-03-01T17:01:43;12.70;57.40
78904;DHT22;68291;49.602;8.722;2023-03-01T17:04:28;12.40;57.80
78904;DHT22;68291;49.602;8.722;2023-03-01T17:07:12;12.10;58.30
78904;DHT22;68291;49.602;8.722;2023-03-01T17:09:52;11.80;58.50
78904;DHT22;68291;49.602;8.722;2023-03-01T17:12:27;11.50;59.10
78904;DHT22;68291;49.602;8.722;2023-03-01T17:15:00;11.30;59.10
78904;DHT22;68291;49.602;8.722;2023-03-01T17:17:57;11.00;59.70
78904;DHT22;68291;49.602;8.722;2023-03-01T17:20:47;10.70;60.00
78904;DHT22;68291;49.602;8.722;2023-03-01T17:23:39;10.50;60.30
78904;DHT22;68291;49.602;8.722;2023-03-01T17:26:29;10.20;61.30
78904;DHT22;68291;49.602;8.722;2023-03-01T17:29:18;9.90;62.10
78904;DHT22;68291;49.602;8.722;2023-03-01T17:32:20;9.70;62.00
78904;DHT22;68291;49.602;8.722;2023-03-01T17:34:55;9.40;62.10
78904;DHT22;68291;49.602;8.722;2023-03-01T17:37:26;9.20;63.10
78904;DHT22;68291;49.602;8.722;2023-03-01T17:40:02;9.10;63.20
78904;DHT22;68291;49.602;8.722;2023-03-01T17:42:50;8.90;63.80
78904;DHT22;68291;49.602;8.722;2023-03-01T17:45:32;8.70;63.60
78904;DHT22;68291;49.602;8.722;2023-03-01T17:48:18;8.60;64.00
78904;DHT22;68291;49.602;8.722;2023-03-01T17:51:15;8.50;64.30
78904;DHT22;68291;49.602;8.722;2023-03-01T17:54:12;8.40;64.70
78904;DHT22;68291;49.602;8.722;2023-03-01T17:56:46;8.30;64.90
78904;DHT22;68291;49.602;8.722;2023-03-01T17:59:44;8.20;65.20
78904;DHT22;68291;49.602;8.722;2023-03-01T18:02:40;8.10;66.00
78904;DHT22;68291;49.602;8.722;2023-03-01T18:05:31;8.00;65.80
78904;DHT22;68291;49.602;8.722;2023-03-01T18:08:14;7.80;66.40
78904;DHT22;68291;49.602;8.722;2023-03-01T18:11:00;7.70;66.40
78904;DHT22;68291;49.602;8.722;2023-03-01T18:13:41;7.60;67.00
78904;DHT22;68291;49.602;8.722;2023-03-01T18:16:37;7.50;67.00
78904;DHT22;68291;49.602;8.722;2023-03-01T18:19:14;7.50;68.30
78904;DHT22;68291;49.602;8.722;2023-03-01T18:22:00;7.40;68.10
78904;DHT22;68291;49.602;8.722;2023-03-01T18:24:37;7.40;68.10
78904;DHT22;68291;49.602;8.722;2023-03-01T18:27:10;7.40;68.10
78904;DHT22;68291;49.602;8.722;2023-03-01T18:29:50;7.40;68.50
78904;DHT22;68291;49.602;8.722;2023-03-01T18:32:45;7.40;68.50
78904;DHT22;68291;49.602;8.722;2023-03-01T18:35:25;7.40;69.00
78904;DHT22;68291;49.602;8.722;2023-03-01T18:38:16;7.40;68.60
78904;DHT22;68291;49.602;8.722;2023-03-01T18:41:06;7.40;68.60
78904;DHT22;68291;49.602;8.722;2023-03-01T18:44:03;7.40;68.90
78904;DHT22;68291;49.602;8.722;2023-03-01T18:46:43;7.40;69.10
78904;DHT22;68291;49.602;8.722;2023-03-01T18:49:23;7.40;69.00
78904;DHT22;68291;49.602;8.722;2023-03-01T18:52:13;7.30;69.10
78904;DHT22;68291;49.602;8.722;2023-03-01T18:54:53;7.30;69.10
78904;DHT22;68291;49.602;8.722;2023-03-01T18:57:41;7.30;69.30
78904;DHT22;68291;49.602;8.722;2023-03-01T19:00:33;7.20;69.50
78904;DHT22;68291;49.602;8.722;2023-03-01T19:03:22;7.10;69.70
78904;DHT22;68291;49.602;8.722;2023-03-01T19:05:56;7.10;70.10
78904;DHT22;68291;49.602;8.722;2023-03-01T19:08:35;7.00;70.40
78904;DHT22;68291;49.602;8.722;2023-03-01T19:11:24;6.90;69.70
78904;DHT22;68291;49.602;8.722;2023-03-01T19:14:19;6.90;70.20
78904;DHT22;68291;49.602;8.722;2023-03-01T19:17:08;6.80;69.80
78904;DHT22;68291;49.602;8.722;2023-03-01T19:19:47;6.80;70.50
78904;DHT22;68291;49.602;8.722;2023-03-01T19:25:58;6.80;71.80
78904;DHT22;68291;49.602;8.722;2023-03-01T19:28:30;6.80;70.80
78904;DHT22;68291;49.602;8.722;2023-03-01T19:31:09;6.80;71.00
78904;DHT22;68291;49.602;8.722;2023-03-01T19:33:57;6.80;71.30
78904;DHT22;68291;49.602;8.722;2023-03-01T19:36:55;6.70;71.80
78904;DHT22;68291;49.602;8.722;2023-03-01T19:39:51;6.70;71.50
78904;DHT22;68291;49.602;8.722;2023-03-01T19:42:37;6.70;73.20
78904;DHT22;68291;49.602;8.722;2023-03-01T19:45:19;6.60;71.50
78904;DHT22;68291;49.602;8.722;2023-03-01T19:48:22;6.60;71.80
78904;DHT22;68291;49.602;8.722;2023-03-01T19:51:05;6.50;71.80
78904;DHT22;68291;49.602;8.722;2023-03-01T19:54:03;6.50;71.90
78904;DHT22;68291;49.602;8.722;2023-03-01T19:56:46;6.50;72.30
78904;DHT22;68291;49.602;8.722;2023-03-01T19:59:21;6.50;72.80
78904;DHT22;68291;49.602;8.722;2023-03-01T20:02:21;6.50;72.10
78904;DHT22;68291;49.602;8.722;2023-03-01T20:05:11;6.50;72.30
78904;DHT22;68291;49.602;8.722;2023-03-01T20:07:54;6.60;73.00
78904;DHT22;68291;49.602;8.722;2023-03-01T20:10:39;6.60;73.80
78904;DHT22;68291;49.602;8.722;2023-03-01T20:13:30;6.60;73.60
78904;DHT22;68291;49.602;8.722;2023-03-01T20:16:16;6.60;74.00
78904;DHT22;68291;49.602;8.722;2023-03-01T20:19:00;6.60;73.70
78904;DHT22;68291;49.602;8.722;2023-03-01T20:21:42;6.60;74.20
78904;DHT22;68291;49.602;8.722;2023-03-01T20:24:30;6.60;74.40
78904;DHT22;68291;49.602;8.722;2023-03-01T20:27:02;6.70;74.10
78904;DHT22;68291;49.602;8.722;2023-03-01T20:30:00;6.70;74.00
78904;DHT22;68291;49.602;8.722;2023-03-01T20:32:57;6.70;74.00
78904;DHT22;68291;49.602;8.722;2023-03-01T20:35:42;6.70;73.70
78904;DHT22;68291;49.602;8.722;2023-03-01T20:38:21;6.70;73.90
78904;DHT22;68291;49.602;8.722;2023-03-01T20:41:05;6.80;74.10
78904;DHT22;68291;49.602;8.722;2023-03-01T20:43:41;6.80;74.60
78904;DHT22;68291;49.602;8.722;2023-03-01T20:46:43;6.80;74.50
78904;DHT22;68291;49.602;8.722;2023-03-01T20:49:31;6.80;75.30
78904;DHT22;68291;49.602;8.722;2023-03-01T20:52:10;6.80;74.50
78904;DHT22;68291;49.602;8.722;2023-03-01T20:54:44;6.80;74.30
78904;DHT22;68291;49.602;8.722;2023-03-01T20:57:40;6.80;74.50
78904;DHT22;68291;49.602;8.722;2023-03-01T21:00:21;6.80;74.60
78904;DHT22;68291;49.602;8.722;2023-03-01T21:03:26;6.80;74.70
78904;DHT22;68291;49.602;8.722;2023-03-01T21:06:09;6.80;75.30
78904;DHT22;68291;49.602;8.722;2023-03-01T21:08:57;6.80;74.60
78904;DHT22;68291;49.602;8.722;2023-03-01T21:11:29;6.80;74.80
78904;DHT22;68291;49.602;8.722;2023-03-01T21:14:15;6.80;75.60
78904;DHT22;68291;49.602;8.722;2023-03-01T21:17:16;6.70;75.10
78904;DHT22;68291;49.602;8.722;2023-03-01T21:20:10;6.70;75.20
78904;DHT22;68291;49.602;8.722;2023-03-01T21:23:02;6.70;76.00
78904;DHT22;68291;49.602;8.722;2023-03-01T21:25:37;6.60;75.30
78904;DHT22;68291;49.602;8.722;2023-03-01T21:28:26;6.60;75.30
78904;DHT22;68291;49.602;8.722;2023-03-01T21:31:13;6.60;75.10
78904;DHT22;68291;49.602;8.722;2023-03-01T21:33:54;6.60;75.30
78904;DHT22;68291;49.602;8.722;2023-03-01T21:36:43;6.50;75.30
78904;DHT22;68291;49.602;8.722;2023-03-01T21:39:18;6.50;76.10
78904;DHT22;68291;49.602;8.722;2023-03-01T21:41:55;6.50;75.90
78904;DHT22;68291;49.602;8.722;2023-03-01T21:44:36;6.40;75.30
78904;DHT22;68291;49.602;8.722;2023-03-01T21:47:22;6.40;75.70
78904;DHT22;68291;49.602;8.722;2023-03-01T21:50:04;6.30;76.30
78904;DHT22;68291;49.602;8.722;2023-03-01T21:52:39;6.30;76.50
78904;DHT22;68291;49.602;8.722;2023-03-01T21:55:11;6.30;76.30
78904;DHT22;68291;49.602;8.722;2023-03-01T21:58:07;6.20;76.70
78904;DHT22;68291;49.602;8.722;2023-03-01T22:00:55;6.20;76.50
78904;DHT22;68291;49.602;8.722;2023-03-01T22:03:37;6.20;77.40
78904;DHT22;68291;49.602;8.722;2023-03-01T22:06:31;6.20;77.00
78904;DHT22;68291;49.602;8.722;2023-03-01T22:09:28;6.20;76.70
78904;DHT22;68291;49.602;8.722;2023-03-01T22:12:22;6.20;76.70
78904;DHT22;68291;49.602;8.722;2023-03-01T22:15:18;6.20;76.80
78904;DHT22;68291;49.602;8.722;2023-03-01T22:17:51;6.20;76.70
78904;DHT22;68291;49.602;8.722;2023-03-01T22:20:31;6.20;76.60
78904;DHT22;68291;49.602;8.722;2023-03-01T22:23:12;6.10;76.70
78904;DHT22;68291;49.602;8.722;2023-03-01T22:26:18;6.10;76.70
78904;DHT22;68291;49.602;8.722;2023-03-01T22:29:11;6.10;77.60
78904;DHT22;68291;49.602;8.722;2023-03-01T22:32:00;6.10;77.60
78904;DHT22;68291;49.602;8.722;2023-03-01T22:34:37;6.10;77.60
78904;DHT22;68291;49.602;8.722;2023-03-01T22:37:31;6.00;77.30
78904;DHT22;68291;49.602;8.722;2023-03-01T22:40:15;6.00;77.40
78904;DHT22;68291;49.602;8.722;2023-03-01T22:43:03;6.00;77.60
78904;DHT22;68291;49.602;8.722;2023-03-01T22:45:51;6.00;77.60
78904;DHT22;68291;49.602;8.722;2023-03-01T22:48:34;5.90;77.80
78904;DHT22;68291;49.602;8.722;2023-03-01T22:51:16;5.90;77.60
78904;DHT22;68291;49.602;8.722;2023-03-01T22:54:18;5.90;77.80
78904;DHT22;68291;49.602;8.722;2023-03-01T22:56:56;5.90;77.40
78904;DHT22;68291;49.602;8.722;2023-03-01T22:59:44;5.90;77.80
78904;DHT22;68291;49.602;8.722;2023-03-01T23:02:33;5.80;78.60
78904;DHT22;68291;49.602;8.722;2023-03-01T23:05:17;5.80;78.00
78904;DHT22;68291;49.602;8.722;2023-03-01T23:08:00;5.80;77.60
78904;DHT22;68291;49.602;8.722;2023-03-01T23:10:44;5.70;78.20
78904;DHT22;68291;49.602;8.722;2023-03-01T23:13:29;5.70;78.20
78904;DHT22;68291;49.602;8.722;2023-03-01T23:16:34;5.70;78.40
78904;DHT22;68291;49.602;8.722;2023-03-01T23:19:23;5.60;79.00
78904;DHT22;68291;49.602;8.722;2023-03-01T23:22:09;5.60;78.80
78904;DHT22;68291;49.602;8.722;2023-03-01T23:24:51;5.60;78.40
78904;DHT22;68291;49.602;8.722;2023-03-01T23:27:30;5.50;78.40
78904;DHT22;68291;49.602;8.722;2023-03-01T23:30:09;5.50;78.60
78904;DHT22;68291;49.602;8.722;2023-03-01T23:32:51;5.50;79.30
78904;DHT22;68291;49.602;8.722;2023-03-01T23:35:38;5.40;79.60
78904;DHT22;68291;49.602;8.722;2023-03-01T23:38:35;5.40;79.50
78904;DHT22;68291;49.602;8.722;2023-03-01T23:41:29;5.40;79.50
78904;DHT22;68291;49.602;8.722;2023-03-01T23:44:25;5.40;79.60
78904;DHT22;68291;49.602;8.722;2023-03-01T23:46:57;5.30;79.10
78904;DHT22;68291;49.602;8.722;2023-03-01T23:50:10;5.30;79.30
78904;DHT22;68291;49.602;8.722;2023-03-01T23:52:47;5.30;81.00
78904;DHT22;68291;49.602;8.722;2023-03-01T23:55:46;5.30;79.30
78904;DHT22;68291;49.602;8.722;2023-03-01T23:58:24;5.30;79.90
